createdAt,value
2022-12-20T00:00:27.488Z,4.30
2022-12-20T00:00:59.017Z,2.90
2022-12-20T00:01:33.051Z,3.63
2022-12-20T00:02:04.957Z,3.67
2022-12-20T00:02:37.159Z,2.55
2022-12-20T00:03:08.742Z,2.90
2022-12-20T00:03:40.451Z,2.67
2022-12-20T00:04:12.787Z,2.90
2022-12-20T00:04:44.302Z,2.70
2022-12-20T00:05:15.939Z,3.47
2022-12-20T00:05:48.975Z,3.58
2022-12-20T00:06:21.562Z,2.67
2022-12-20T00:06:53.195Z,2.72
2022-12-20T00:07:24.902Z,3.28
2022-12-20T00:07:58.490Z,3.42
2022-12-20T00:08:30.352Z,4.18
2022-12-20T00:09:03.315Z,3.22
2022-12-20T00:09:34.910Z,3.17
2022-12-20T00:10:07.247Z,3.15
2022-12-20T00:10:40.632Z,3.10
2022-12-20T00:11:12.308Z,3.65
2022-12-20T00:11:43.939Z,2.95
2022-12-20T00:12:15.456Z,3.00
2022-12-20T00:12:47.019Z,3.13
2022-12-20T00:13:18.578Z,2.58
2022-12-20T00:13:50.108Z,3.50
2022-12-20T00:14:21.651Z,3.15
2022-12-20T00:14:53.249Z,2.95
2022-12-20T00:15:24.801Z,2.80
2022-12-20T00:16:15.072Z,2.70
2022-12-20T00:16:46.625Z,2.78
2022-12-20T00:17:18.158Z,2.90
2022-12-20T00:17:49.691Z,3.58
2022-12-20T00:18:21.199Z,3.47
2022-12-20T00:18:55.062Z,2.65
2022-12-20T00:19:26.565Z,3.00
2022-12-20T00:19:58.366Z,3.53
2022-12-20T00:20:30.367Z,3.13
2022-12-20T00:21:03.683Z,3.05
2022-12-20T00:21:36.186Z,2.72
2022-12-20T00:22:07.677Z,3.25
2022-12-20T00:22:39.390Z,3.15
2022-12-20T00:23:13.628Z,2.83
2022-12-20T00:23:45.157Z,3.05
2022-12-20T00:24:22.256Z,3.42
2022-12-20T00:24:57.388Z,2.72
2022-12-20T00:25:29.203Z,2.67
2022-12-20T00:26:02.914Z,2.53
2022-12-20T00:26:35.249Z,3.28
2022-12-20T00:27:06.975Z,2.70
2022-12-20T00:27:38.621Z,3.33
2022-12-20T00:28:10.137Z,4.18
2022-12-20T00:28:42.642Z,2.70
2022-12-20T00:29:14.740Z,3.42
2022-12-20T00:29:46.247Z,2.70
2022-12-20T00:30:18.540Z,2.42
2022-12-20T00:30:54.368Z,3.20
2022-12-20T00:31:28.110Z,2.55
2022-12-20T00:31:59.886Z,3.22
2022-12-20T00:32:31.608Z,3.15
2022-12-20T00:33:05.515Z,2.88
2022-12-20T00:33:39.723Z,2.67
2022-12-20T00:34:13.556Z,2.92
2022-12-20T00:34:45.075Z,2.50
2022-12-20T00:35:16.593Z,3.00
2022-12-20T00:35:51.039Z,2.03
2022-12-20T00:36:24.680Z,2.75
2022-12-20T00:36:57.325Z,2.35
2022-12-20T00:37:28.900Z,2.92
2022-12-20T00:38:01.263Z,2.90
2022-12-20T00:38:32.986Z,3.17
2022-12-20T00:39:04.520Z,2.95
2022-12-20T00:39:36.047Z,2.65
2022-12-20T00:40:08.244Z,2.85
2022-12-20T00:40:39.746Z,2.75
2022-12-20T00:41:15.727Z,2.45
2022-12-20T00:41:51.185Z,2.97
2022-12-20T00:42:22.984Z,2.67
2022-12-20T00:42:54.470Z,2.75
2022-12-20T00:43:25.976Z,2.60
2022-12-20T00:43:57.593Z,3.10
2022-12-20T00:44:29.435Z,2.97
2022-12-20T00:45:01.031Z,2.47
2022-12-20T00:45:32.541Z,3.00
2022-12-20T00:46:04.835Z,3.10
2022-12-20T00:46:37.387Z,2.80
2022-12-20T00:47:08.997Z,2.50
2022-12-20T00:47:40.548Z,2.65
2022-12-20T00:48:12.044Z,2.92
2022-12-20T00:48:43.751Z,2.67
2022-12-20T00:49:16.535Z,2.75
2022-12-20T00:49:48.099Z,2.90
2022-12-20T00:50:19.592Z,3.10
2022-12-20T00:50:51.394Z,3.45
2022-12-20T00:51:28.797Z,2.45
2022-12-20T00:52:00.316Z,2.88
2022-12-20T00:52:31.828Z,2.53
2022-12-20T00:53:03.443Z,2.70
2022-12-20T00:53:35.645Z,2.28
2022-12-20T00:54:07.208Z,2.65
2022-12-20T00:54:38.695Z,2.50
2022-12-20T00:55:10.275Z,2.30
2022-12-20T00:55:43.795Z,2.53
2022-12-20T00:56:17.735Z,2.75
2022-12-20T00:56:49.289Z,2.70
2022-12-20T00:57:20.839Z,2.42
2022-12-20T00:57:53.160Z,2.42
2022-12-20T00:58:25.447Z,2.95
2022-12-20T00:58:58.857Z,2.28
2022-12-20T00:59:30.381Z,2.50
2022-12-20T01:00:01.914Z,2.83
2022-12-20T01:00:33.896Z,2.58
2022-12-20T01:01:19.927Z,2.60
2022-12-20T01:01:53.140Z,2.50
2022-12-20T01:02:25.617Z,2.67
2022-12-20T01:02:57.474Z,2.63
2022-12-20T01:03:29.770Z,2.30
2022-12-20T01:04:01.703Z,2.15
2022-12-20T01:04:33.279Z,2.50
2022-12-20T01:05:05.156Z,2.22
2022-12-20T01:05:37.047Z,2.58
2022-12-20T01:06:10.083Z,2.45
2022-12-20T01:06:44.427Z,2.35
2022-12-20T01:07:16.091Z,2.22
2022-12-20T01:07:47.591Z,2.25
2022-12-20T01:08:20.051Z,2.47
2022-12-20T01:08:52.981Z,2.63
2022-12-20T01:09:24.609Z,2.42
2022-12-20T01:09:56.605Z,2.65
2022-12-20T01:10:28.202Z,2.30
2022-12-20T01:11:05.082Z,2.05
2022-12-20T01:11:37.351Z,2.30
2022-12-20T01:12:10.027Z,2.20
2022-12-20T01:12:41.581Z,2.00
2022-12-20T01:13:13.310Z,2.60
2022-12-20T01:13:48.238Z,2.20
2022-12-20T01:14:19.782Z,2.50
2022-12-20T01:14:51.304Z,2.45
2022-12-20T01:15:22.945Z,2.20
2022-12-20T01:15:54.732Z,2.47
2022-12-20T01:16:29.806Z,2.10
2022-12-20T01:17:01.626Z,2.15
2022-12-20T01:17:33.211Z,2.00
2022-12-20T01:18:04.880Z,1.92
2022-12-20T01:18:39.919Z,2.13
2022-12-20T01:19:13.784Z,2.03
2022-12-20T01:19:45.295Z,2.38
2022-12-20T01:20:17.337Z,2.25
2022-12-20T01:20:49.189Z,2.50
2022-12-20T01:21:21.876Z,2.00
2022-12-20T01:21:53.411Z,2.45
2022-12-20T01:22:24.934Z,3.35
2022-12-20T01:22:56.591Z,2.17
2022-12-20T01:23:28.436Z,3.65
2022-12-20T01:23:59.946Z,2.38
2022-12-20T01:24:38.977Z,2.25
2022-12-20T01:25:10.879Z,2.35
2022-12-20T01:25:44.518Z,2.33
2022-12-20T01:26:21.570Z,2.00
2022-12-20T01:26:55.678Z,2.22
2022-12-20T01:27:27.320Z,2.17
2022-12-20T01:28:04.714Z,2.45
2022-12-20T01:28:37.879Z,2.45
2022-12-20T01:29:09.892Z,2.88
2022-12-20T01:29:41.405Z,2.25
2022-12-20T01:30:14.187Z,2.78
2022-12-20T01:30:49.060Z,2.50
2022-12-20T01:31:21.105Z,2.58
2022-12-20T01:31:54.027Z,2.40
2022-12-20T01:32:25.635Z,2.28
2022-12-20T01:32:57.176Z,3.10
2022-12-20T01:33:28.968Z,2.35
2022-12-20T01:34:01.088Z,2.25
2022-12-20T01:34:32.770Z,2.03
2022-12-20T01:35:04.681Z,2.40
2022-12-20T01:35:36.198Z,2.15
2022-12-20T01:36:16.958Z,1.88
2022-12-20T01:36:49.570Z,2.22
2022-12-20T01:37:21.149Z,2.00
2022-12-20T01:37:52.667Z,1.95
2022-12-20T01:38:24.728Z,2.42
2022-12-20T01:39:23.237Z,1.63
2022-12-20T01:39:54.816Z,1.85
2022-12-20T01:40:27.113Z,2.53
2022-12-20T01:41:01.263Z,2.10
2022-12-20T01:41:34.653Z,2.42
2022-12-20T01:42:06.218Z,2.58
2022-12-20T01:42:37.876Z,2.30
2022-12-20T01:43:12.803Z,2.28
2022-12-20T01:44:24.800Z,1.92
2022-12-20T01:44:59.212Z,2.20
2022-12-20T01:45:31.272Z,2.30
2022-12-20T01:46:03.041Z,1.63
2022-12-20T01:46:36.421Z,1.73
2022-12-20T01:47:08.312Z,2.10
2022-12-20T01:47:39.965Z,1.90
2022-12-20T01:48:12.070Z,2.08
2022-12-20T01:48:46.846Z,1.80
2022-12-20T01:49:19.939Z,2.10
2022-12-20T01:49:53.068Z,2.20
2022-12-20T01:50:25.257Z,2.17
2022-12-20T01:50:56.767Z,1.80
2022-12-20T01:51:31.057Z,5.00
2022-12-20T01:52:04.703Z,2.03
2022-12-20T01:52:42.413Z,2.03
2022-12-20T01:53:15.320Z,2.40
2022-12-20T01:53:48.946Z,2.20
2022-12-20T01:54:43.074Z,1.77
2022-12-20T01:55:17.969Z,2.63
2022-12-20T01:55:49.985Z,2.03
2022-12-20T01:56:21.570Z,1.60
2022-12-20T01:56:57.574Z,1.83
2022-12-20T01:57:41.070Z,2.47
2022-12-20T01:58:13.327Z,1.88
2022-12-20T01:58:46.334Z,2.25
2022-12-20T01:59:17.961Z,1.95
2022-12-20T01:59:50.329Z,1.88
2022-12-20T02:00:21.936Z,2.03
2022-12-20T02:00:53.518Z,2.10
2022-12-20T02:01:25.679Z,1.77
2022-12-20T02:01:59.514Z,1.80
2022-12-20T02:02:32.350Z,2.17
2022-12-20T02:03:09.847Z,2.17
2022-12-20T02:03:42.630Z,3.50
2022-12-20T02:04:14.473Z,2.47
2022-12-20T02:04:46.003Z,1.80
2022-12-20T02:05:20.177Z,2.30
2022-12-20T02:05:52.115Z,2.13
2022-12-20T02:06:26.436Z,1.80
2022-12-20T02:06:58.153Z,1.80
2022-12-20T02:07:31.304Z,2.60
2022-12-20T02:08:03.856Z,1.85
2022-12-20T02:08:35.461Z,1.80
2022-12-20T02:09:07.676Z,2.30
2022-12-20T02:09:39.833Z,2.03
2022-12-20T02:10:12.002Z,2.05
2022-12-20T02:10:46.368Z,1.98
2022-12-20T02:11:41.226Z,2.38
2022-12-20T02:12:15.865Z,1.90
2022-12-20T02:12:48.665Z,2.05
2022-12-20T02:13:30.721Z,1.48
2022-12-20T02:14:14.029Z,1.98
2022-12-20T02:15:05.862Z,2.22
2022-12-20T02:15:46.641Z,2.20
2022-12-20T02:16:24.892Z,1.98
2022-12-20T02:17:16.475Z,2.00
2022-12-20T02:18:08.306Z,2.00
2022-12-20T02:18:47.444Z,1.90
2022-12-20T02:19:46.953Z,2.30
2022-12-20T02:20:40.151Z,1.85
2022-12-20T02:21:17.942Z,2.63
2022-12-20T02:22:23.841Z,2.08
2022-12-20T02:23:15.132Z,2.15
2022-12-20T02:23:46.785Z,2.10
2022-12-20T02:25:04.655Z,2.40
2022-12-20T02:25:44.953Z,2.00
2022-12-20T02:26:25.243Z,2.08
2022-12-20T02:28:26.948Z,2.17
2022-12-20T02:29:35.832Z,2.03
2022-12-20T02:30:09.754Z,2.50
2022-12-20T02:30:46.342Z,2.20
2022-12-20T02:31:21.060Z,2.25
2022-12-20T02:32:17.014Z,2.25
2022-12-20T02:32:55.800Z,1.90
2022-12-20T02:33:28.523Z,2.33
2022-12-20T02:34:00.497Z,2.30
2022-12-20T02:34:34.042Z,1.95
2022-12-20T02:35:09.370Z,1.70
2022-12-20T02:35:42.565Z,2.72
2022-12-20T02:36:18.029Z,2.47
2022-12-20T02:36:54.109Z,2.35
2022-12-20T02:37:25.795Z,2.28
2022-12-20T02:37:59.854Z,2.45
2022-12-20T02:38:34.392Z,2.90
2022-12-20T02:39:05.904Z,2.22
2022-12-20T02:39:40.857Z,2.10
2022-12-20T02:40:12.999Z,2.60
2022-12-20T02:40:44.978Z,2.15
2022-12-20T02:41:42.592Z,2.33
2022-12-20T02:42:16.545Z,2.45
2022-12-20T02:42:52.536Z,3.15
2022-12-20T02:43:43.393Z,2.85
2022-12-20T02:44:35.935Z,2.30
2022-12-20T02:45:15.344Z,2.33
2022-12-20T02:45:57.499Z,2.03
2022-12-20T02:46:29.612Z,2.42
2022-12-20T02:47:03.137Z,2.30
2022-12-20T02:47:37.276Z,2.42
2022-12-20T02:48:10.887Z,1.98
2022-12-20T02:48:44.549Z,2.60
2022-12-20T02:49:22.310Z,2.42
2022-12-20T02:49:54.789Z,2.65
2022-12-20T02:50:39.046Z,2.47
2022-12-20T02:51:11.205Z,2.80
2022-12-20T02:51:45.366Z,2.35
2022-12-20T02:52:17.569Z,2.33
2022-12-20T02:52:50.371Z,2.80
2022-12-20T02:53:23.429Z,3.10
2022-12-20T02:53:55.105Z,2.65
2022-12-20T02:54:31.533Z,2.47
2022-12-20T02:55:05.582Z,2.38
2022-12-20T02:55:48.356Z,2.80
2022-12-20T02:56:24.409Z,2.50
2022-12-20T02:57:02.052Z,2.25
2022-12-20T02:58:00.300Z,2.40
2022-12-20T02:58:43.222Z,2.35
2022-12-20T02:59:19.421Z,2.28
2022-12-20T03:00:10.892Z,2.88
2022-12-20T03:00:44.012Z,3.45
2022-12-20T03:01:24.147Z,2.92
2022-12-20T03:01:56.788Z,2.67
2022-12-20T03:02:29.599Z,2.38
2022-12-20T03:03:20.087Z,3.45
2022-12-20T03:03:52.313Z,2.35
2022-12-20T03:04:27.192Z,3.10
2022-12-20T03:04:58.980Z,2.85
2022-12-20T03:05:33.023Z,2.72
2022-12-20T03:06:05.299Z,2.47
2022-12-20T03:06:36.984Z,2.55
2022-12-20T03:07:13.331Z,2.83
2022-12-20T03:07:48.430Z,3.30
2022-12-20T03:08:21.186Z,2.53
2022-12-20T03:08:56.336Z,2.88
2022-12-20T03:09:33.137Z,2.75
2022-12-20T03:10:05.047Z,2.80
2022-12-20T03:10:36.554Z,2.33
2022-12-20T03:11:08.446Z,2.90
2022-12-20T03:11:39.980Z,2.97
2022-12-20T03:12:13.201Z,3.47
2022-12-20T03:12:45.965Z,2.58
2022-12-20T03:13:18.163Z,2.45
2022-12-20T03:13:58.550Z,2.80
2022-12-20T03:14:30.078Z,3.30
2022-12-20T03:15:03.911Z,3.15
2022-12-20T03:15:35.886Z,3.08
2022-12-20T03:16:10.679Z,3.15
2022-12-20T03:16:42.880Z,2.97
2022-12-20T03:17:16.123Z,3.45
2022-12-20T03:17:47.759Z,3.35
2022-12-20T03:18:19.287Z,2.72
2022-12-20T03:18:51.052Z,2.92
2022-12-20T03:19:22.571Z,3.28
2022-12-20T03:19:54.108Z,3.33
2022-12-20T03:20:25.661Z,2.97
2022-12-20T03:20:57.370Z,2.83
2022-12-20T03:21:28.947Z,3.45
2022-12-20T03:22:00.476Z,3.05
2022-12-20T03:22:33.674Z,3.67
2022-12-20T03:23:07.724Z,3.55
2022-12-20T03:23:39.709Z,3.35
2022-12-20T03:24:11.426Z,3.38
2022-12-20T03:24:42.985Z,3.10
2022-12-20T03:25:17.265Z,3.20
2022-12-20T03:25:48.980Z,3.05
2022-12-20T03:26:29.581Z,3.45
2022-12-20T03:27:05.094Z,2.78
2022-12-20T03:27:38.957Z,3.13
2022-12-20T03:28:10.574Z,2.63
2022-12-20T03:28:42.157Z,3.15
2022-12-20T03:29:16.614Z,3.38
2022-12-20T03:29:48.150Z,2.80
2022-12-20T03:30:20.544Z,3.05
2022-12-20T03:30:52.107Z,3.22
2022-12-20T03:31:23.892Z,3.22
2022-12-20T03:31:58.601Z,2.83
2022-12-20T03:32:30.131Z,3.20
2022-12-20T03:33:01.616Z,3.25
2022-12-20T03:33:41.090Z,3.30
2022-12-20T03:34:13.248Z,3.85
2022-12-20T03:34:44.862Z,3.30
2022-12-20T03:35:17.271Z,3.38
2022-12-20T03:35:49.237Z,3.65
2022-12-20T03:36:24.103Z,3.00
2022-12-20T03:37:10.635Z,3.55
2022-12-20T03:37:43.161Z,3.95
2022-12-20T03:38:15.593Z,3.28
2022-12-20T03:38:47.274Z,3.08
2022-12-20T03:39:18.862Z,3.88
2022-12-20T03:39:50.410Z,3.97
2022-12-20T03:40:22.708Z,3.55
2022-12-20T03:40:54.583Z,3.05
2022-12-20T03:41:27.507Z,2.53
2022-12-20T03:41:59.061Z,3.50
2022-12-20T03:42:30.657Z,4.25
2022-12-20T03:43:02.369Z,3.58
2022-12-20T03:43:34.070Z,3.25
2022-12-20T03:44:05.703Z,3.22
2022-12-20T03:44:37.438Z,3.15
2022-12-20T03:45:09.664Z,3.67
2022-12-20T03:45:41.694Z,3.17
2022-12-20T03:46:13.462Z,3.38
2022-12-20T03:46:45.157Z,3.03
2022-12-20T03:47:16.782Z,3.50
2022-12-20T03:47:51.265Z,3.17
2022-12-20T03:48:23.040Z,3.40
2022-12-20T03:48:54.650Z,3.55
2022-12-20T03:49:27.164Z,3.33
2022-12-20T03:49:58.719Z,3.83
2022-12-20T03:50:31.503Z,3.40
2022-12-20T03:51:04.039Z,4.03
2022-12-20T03:51:35.636Z,3.17
2022-12-20T03:52:07.317Z,2.90
2022-12-20T03:52:38.861Z,2.80
2022-12-20T03:53:10.534Z,3.13
2022-12-20T03:53:42.192Z,3.70
2022-12-20T03:54:15.721Z,3.22
2022-12-20T03:55:07.307Z,3.35
2022-12-20T03:55:47.650Z,3.58
2022-12-20T03:56:20.318Z,3.25
2022-12-20T03:56:52.417Z,3.83
2022-12-20T03:57:24.052Z,3.30
2022-12-20T03:57:57.460Z,3.58
2022-12-20T03:58:36.342Z,3.38
2022-12-20T03:59:08.325Z,3.83
2022-12-20T03:59:40.462Z,4.47
2022-12-20T04:00:15.403Z,3.17
2022-12-20T04:00:47.575Z,2.78
2022-12-20T04:01:42.351Z,3.08
2022-12-20T04:02:14.889Z,3.20
2022-12-20T04:02:46.789Z,2.90
2022-12-20T04:03:18.888Z,3.65
2022-12-20T04:03:51.089Z,3.15
2022-12-20T04:04:22.840Z,2.90
2022-12-20T04:04:54.348Z,3.55
2022-12-20T04:05:26.863Z,3.72
2022-12-20T04:05:58.378Z,3.38
2022-12-20T04:06:29.922Z,4.63
2022-12-20T04:07:01.599Z,2.75
2022-12-20T04:07:33.139Z,3.10
2022-12-20T04:08:04.742Z,3.03
2022-12-20T04:08:36.435Z,3.08
2022-12-20T04:09:08.772Z,3.30
2022-12-20T04:09:46.603Z,3.20
2022-12-20T04:10:19.576Z,3.10
2022-12-20T04:11:09.906Z,3.45
2022-12-20T04:12:18.449Z,2.55
2022-12-20T04:12:50.393Z,3.40
2022-12-20T04:13:24.918Z,3.78
2022-12-20T04:13:56.888Z,3.28
2022-12-20T04:14:28.511Z,3.38
2022-12-20T04:15:00.264Z,3.47
2022-12-20T04:15:33.068Z,2.80
2022-12-20T04:16:04.931Z,3.45
2022-12-20T04:16:38.648Z,3.03
2022-12-20T04:17:11.141Z,3.08
2022-12-20T04:17:42.686Z,3.00
2022-12-20T04:18:14.217Z,3.08
2022-12-20T04:18:46.225Z,2.97
2022-12-20T04:19:17.920Z,3.17
2022-12-20T04:19:51.473Z,2.72
2022-12-20T04:20:25.121Z,2.83
2022-12-20T04:21:08.164Z,2.70
2022-12-20T04:21:44.420Z,3.38
2022-12-20T04:22:16.591Z,2.60
2022-12-20T04:22:55.397Z,2.83
2022-12-20T04:23:27.153Z,3.10
2022-12-20T04:24:00.048Z,3.38
2022-12-20T04:24:41.131Z,4.05
2022-12-20T04:25:23.754Z,3.10
2022-12-20T04:25:55.817Z,3.70
2022-12-20T04:26:27.869Z,3.10
2022-12-20T04:27:01.137Z,2.45
2022-12-20T04:27:32.778Z,2.95
2022-12-20T04:28:05.692Z,3.05
2022-12-20T04:28:37.401Z,2.97
2022-12-20T04:29:09.482Z,2.58
2022-12-20T04:29:41.883Z,3.15
2022-12-20T04:30:16.485Z,3.28
2022-12-20T04:30:49.926Z,2.70
2022-12-20T04:31:26.975Z,2.72
2022-12-20T04:31:59.126Z,2.35
2022-12-20T04:32:30.801Z,2.75
2022-12-20T04:33:02.827Z,3.13
2022-12-20T04:33:34.532Z,3.22
2022-12-20T04:34:06.068Z,3.28
2022-12-20T04:34:38.658Z,2.58
2022-12-20T04:35:10.799Z,3.05
2022-12-20T04:35:46.149Z,2.53
2022-12-20T04:36:17.985Z,2.50
2022-12-20T04:36:49.525Z,3.20
2022-12-20T04:37:29.262Z,3.13
2022-12-20T04:38:01.851Z,5.18
2022-12-20T04:38:34.200Z,2.53
2022-12-20T04:39:05.833Z,2.80
2022-12-20T04:39:47.568Z,2.55
2022-12-20T04:40:37.361Z,2.78
2022-12-20T04:41:22.348Z,2.97
2022-12-20T04:41:58.132Z,2.90
2022-12-20T04:42:29.827Z,2.60
2022-12-20T04:43:01.640Z,2.72
2022-12-20T04:43:33.219Z,2.85
2022-12-20T04:44:05.058Z,3.15
2022-12-20T04:44:40.974Z,2.90
2022-12-20T04:45:15.012Z,2.55
2022-12-20T04:45:48.213Z,2.47
2022-12-20T04:46:20.679Z,2.95
2022-12-20T04:46:52.520Z,2.70
2022-12-20T04:47:24.173Z,2.35
2022-12-20T04:47:57.023Z,2.83
2022-12-20T04:48:55.585Z,2.80
2022-12-20T04:49:31.020Z,2.92
2022-12-20T04:50:02.599Z,2.28
2022-12-20T04:50:34.143Z,3.30
2022-12-20T04:51:05.839Z,2.55
2022-12-20T04:51:37.545Z,3.28
2022-12-20T04:52:29.153Z,3.90
2022-12-20T04:53:19.230Z,3.45
2022-12-20T04:53:51.241Z,4.45
2022-12-20T04:54:35.520Z,2.95
2022-12-20T04:55:17.406Z,2.90
2022-12-20T04:55:49.191Z,2.33
2022-12-20T04:56:23.452Z,2.42
2022-12-20T04:56:55.036Z,2.65
2022-12-20T04:57:28.274Z,2.30
2022-12-20T04:58:07.488Z,2.38
2022-12-20T04:59:14.493Z,2.75
2022-12-20T04:59:48.594Z,2.58
2022-12-20T05:00:20.977Z,2.28
2022-12-20T05:00:58.736Z,2.72
2022-12-20T05:01:33.126Z,2.53
2022-12-20T05:02:04.901Z,2.65
2022-12-20T05:02:51.538Z,2.38
2022-12-20T05:03:26.283Z,2.20
2022-12-20T05:03:58.411Z,2.75
2022-12-20T05:04:37.469Z,2.45
2022-12-20T05:05:09.685Z,2.90
2022-12-20T05:05:47.402Z,2.55
2022-12-20T05:06:19.101Z,3.10
2022-12-20T05:06:51.391Z,2.33
2022-12-20T05:07:23.110Z,3.20
2022-12-20T05:07:58.076Z,2.85
2022-12-20T05:08:30.000Z,2.63
2022-12-20T05:09:02.206Z,2.67
2022-12-20T05:09:34.236Z,3.63
2022-12-20T05:10:06.492Z,2.17
2022-12-20T05:10:38.059Z,2.50
2022-12-20T05:11:11.052Z,2.33
2022-12-20T05:11:42.601Z,2.25
2022-12-20T05:12:14.634Z,2.08
2022-12-20T05:12:46.237Z,2.45
2022-12-20T05:13:26.003Z,2.47
2022-12-20T05:13:57.838Z,2.85
2022-12-20T05:14:29.535Z,2.55
2022-12-20T05:15:01.403Z,2.63
2022-12-20T05:15:33.051Z,1.90
2022-12-20T05:16:05.286Z,2.17
2022-12-20T05:16:39.345Z,2.42
2022-12-20T05:17:11.793Z,2.35
2022-12-20T05:17:43.675Z,2.70
2022-12-20T05:18:16.968Z,2.25
2022-12-20T05:19:04.646Z,2.00
2022-12-20T05:19:41.138Z,2.60
2022-12-20T05:20:14.159Z,2.30
2022-12-20T05:20:48.480Z,3.35
2022-12-20T05:21:38.566Z,2.67
2022-12-20T05:22:30.142Z,2.70
2022-12-20T05:23:32.804Z,2.53
2022-12-20T05:24:34.432Z,2.13
2022-12-20T05:25:42.561Z,2.55
2022-12-20T05:26:17.719Z,2.20
2022-12-20T05:26:49.387Z,2.55
2022-12-20T05:27:22.980Z,1.98
2022-12-20T05:27:54.636Z,3.05
2022-12-20T05:28:28.763Z,3.20
2022-12-20T05:29:00.297Z,2.58
2022-12-20T05:29:32.947Z,2.05
2022-12-20T05:30:05.215Z,2.50
2022-12-20T05:30:37.383Z,2.10
2022-12-20T05:31:09.035Z,2.47
2022-12-20T05:31:41.263Z,2.20
2022-12-20T05:32:12.937Z,2.55
2022-12-20T05:32:46.783Z,2.47
2022-12-20T05:33:18.351Z,2.53
2022-12-20T05:33:49.953Z,2.90
2022-12-20T05:34:21.896Z,3.22
2022-12-20T05:34:57.587Z,3.17
2022-12-20T05:35:29.201Z,2.72
2022-12-20T05:36:07.967Z,2.58
2022-12-20T05:36:39.519Z,2.42
2022-12-20T05:37:12.767Z,2.05
2022-12-20T05:37:49.252Z,2.20
2022-12-20T05:38:25.019Z,2.42
2022-12-20T05:39:03.594Z,2.17
2022-12-20T05:39:36.566Z,2.30
2022-12-20T05:40:13.631Z,2.53
2022-12-20T05:40:48.396Z,2.60
2022-12-20T05:41:21.915Z,2.30
2022-12-20T05:41:56.840Z,2.97
2022-12-20T05:42:30.330Z,2.25
2022-12-20T05:43:02.282Z,2.10
2022-12-20T05:43:42.175Z,2.65
2022-12-20T05:44:15.252Z,2.80
2022-12-20T05:44:49.886Z,2.88
2022-12-20T05:45:22.974Z,2.55
2022-12-20T05:46:01.042Z,2.88
2022-12-20T05:46:41.046Z,2.63
2022-12-20T05:47:17.490Z,2.42
2022-12-20T05:47:49.088Z,2.65
2022-12-20T05:48:22.247Z,2.70
2022-12-20T05:48:53.851Z,2.35
2022-12-20T05:49:25.643Z,2.53
2022-12-20T05:49:58.439Z,2.83
2022-12-20T05:50:30.098Z,2.60
2022-12-20T05:51:25.702Z,2.30
2022-12-20T05:52:03.333Z,2.47
2022-12-20T05:52:38.403Z,3.22
2022-12-20T05:53:17.162Z,2.28
2022-12-20T05:53:53.743Z,2.33
2022-12-20T05:54:31.035Z,2.55
2022-12-20T05:55:13.764Z,2.33
2022-12-20T05:55:48.545Z,2.33
2022-12-20T05:56:20.430Z,2.63
2022-12-20T05:56:52.616Z,2.70
2022-12-20T05:57:29.338Z,3.20
2022-12-20T05:58:01.158Z,2.17
2022-12-20T05:58:49.583Z,2.53
2022-12-20T05:59:21.197Z,2.63
2022-12-20T05:59:53.152Z,2.65
2022-12-20T06:00:28.602Z,2.88
2022-12-20T06:01:02.212Z,2.88
2022-12-20T06:01:34.660Z,3.33
2022-12-20T06:02:06.578Z,2.70
2022-12-20T06:02:40.453Z,2.40
2022-12-20T06:03:13.906Z,3.28
2022-12-20T06:03:46.248Z,3.10
2022-12-20T06:04:20.986Z,3.42
2022-12-20T06:04:52.843Z,2.80
2022-12-20T06:05:27.163Z,2.90
2022-12-20T06:06:02.186Z,3.22
2022-12-20T06:06:36.547Z,2.70
2022-12-20T06:07:08.124Z,3.10
2022-12-20T06:07:40.552Z,3.03
2022-12-20T06:08:12.725Z,3.15
2022-12-20T06:08:44.823Z,2.60
2022-12-20T06:09:21.637Z,3.25
2022-12-20T06:10:00.406Z,2.38
2022-12-20T06:10:44.668Z,3.05
2022-12-20T06:11:18.407Z,2.85
2022-12-20T06:11:55.216Z,3.17
2022-12-20T06:12:27.419Z,2.67
2022-12-20T06:12:59.972Z,2.80
2022-12-20T06:13:32.827Z,3.25
2022-12-20T06:14:04.856Z,3.15
2022-12-20T06:14:37.178Z,3.25
2022-12-20T06:15:09.379Z,3.05
2022-12-20T06:15:43.564Z,2.72
2022-12-20T06:16:15.667Z,3.63
2022-12-20T06:16:51.399Z,3.75
2022-12-20T06:17:26.844Z,3.45
2022-12-20T06:17:59.355Z,3.22
2022-12-20T06:18:31.146Z,3.47
2022-12-20T06:19:06.335Z,3.08
2022-12-20T06:19:41.522Z,3.45
2022-12-20T06:20:14.829Z,3.85
2022-12-20T06:20:51.858Z,3.50
2022-12-20T06:21:28.487Z,2.53
2022-12-20T06:22:01.204Z,3.22
2022-12-20T06:22:55.350Z,2.83
2022-12-20T06:23:27.523Z,3.67
2022-12-20T06:24:12.104Z,2.60
2022-12-20T06:24:48.720Z,4.13
2022-12-20T06:25:23.407Z,3.25
2022-12-20T06:25:55.317Z,3.50
2022-12-20T06:26:28.000Z,3.00
2022-12-20T06:26:59.679Z,3.60
2022-12-20T06:27:31.951Z,3.75
2022-12-20T06:28:12.460Z,3.65
2022-12-20T06:28:44.068Z,3.70
2022-12-20T06:29:17.551Z,3.22
2022-12-20T06:29:54.960Z,3.42
2022-12-20T06:30:34.121Z,4.25
2022-12-20T06:31:23.297Z,3.70
2022-12-20T06:31:57.894Z,2.88
2022-12-20T06:32:29.567Z,3.20
2022-12-20T06:33:05.964Z,3.78
2022-12-20T06:33:37.865Z,3.35
2022-12-20T06:34:09.962Z,3.25
2022-12-20T06:34:44.918Z,3.60
2022-12-20T06:35:16.835Z,4.20
2022-12-20T06:35:49.870Z,3.70
2022-12-20T06:36:21.735Z,3.22
2022-12-20T06:36:53.403Z,2.85
2022-12-20T06:37:29.531Z,3.55
2022-12-20T06:38:01.104Z,3.83
2022-12-20T06:38:36.560Z,3.05
2022-12-20T06:39:10.111Z,3.35
2022-12-20T06:39:48.923Z,3.42
2022-12-20T06:40:20.598Z,3.22
2022-12-20T06:40:52.252Z,3.53
2022-12-20T06:41:23.902Z,4.10
2022-12-20T06:41:56.861Z,3.95
2022-12-20T06:42:29.095Z,3.05
2022-12-20T06:43:00.649Z,3.33
2022-12-20T06:43:32.705Z,3.28
2022-12-20T06:44:04.250Z,3.00
2022-12-20T06:44:35.775Z,4.60
2022-12-20T06:45:08.647Z,3.92
2022-12-20T06:45:42.142Z,3.05
2022-12-20T06:46:15.235Z,2.97
2022-12-20T06:46:48.440Z,3.35
2022-12-20T06:47:20.052Z,3.78
2022-12-20T06:47:51.745Z,3.90
2022-12-20T06:48:23.396Z,3.92
2022-12-20T06:48:56.794Z,3.80
2022-12-20T06:49:28.657Z,4.53
2022-12-20T06:50:00.456Z,3.65
2022-12-20T06:50:32.063Z,4.32
2022-12-20T06:51:03.758Z,3.20
2022-12-20T06:51:35.594Z,3.30
2022-12-20T06:52:07.235Z,3.78
2022-12-20T06:52:51.179Z,3.78
2022-12-20T06:53:22.782Z,4.00
2022-12-20T06:53:55.566Z,3.50
2022-12-20T06:54:30.769Z,3.50
2022-12-20T06:55:02.376Z,3.42
2022-12-20T06:55:36.652Z,3.25
2022-12-20T06:56:08.344Z,3.67
2022-12-20T06:56:41.640Z,3.42
2022-12-20T06:57:15.397Z,3.22
2022-12-20T06:57:49.439Z,3.65
2022-12-20T06:58:22.077Z,4.20
2022-12-20T06:58:53.882Z,3.83
2022-12-20T06:59:26.630Z,4.18
2022-12-20T06:59:58.196Z,4.20
2022-12-20T07:00:29.703Z,3.97
2022-12-20T07:01:01.318Z,3.50
2022-12-20T07:01:32.975Z,3.67
2022-12-20T07:02:05.466Z,4.25
2022-12-20T07:02:39.339Z,3.95
2022-12-20T07:03:11.077Z,3.47
2022-12-20T07:03:42.764Z,3.88
2022-12-20T07:04:14.442Z,3.40
2022-12-20T07:04:45.994Z,3.67
2022-12-20T07:05:17.726Z,3.78
2022-12-20T07:05:53.402Z,3.33
2022-12-20T07:06:25.089Z,4.70
2022-12-20T07:06:57.267Z,3.75
2022-12-20T07:07:28.756Z,3.58
2022-12-20T07:08:00.310Z,3.42
2022-12-20T07:08:31.837Z,3.17
2022-12-20T07:09:04.094Z,3.60
2022-12-20T07:09:35.628Z,3.63
2022-12-20T07:10:08.043Z,3.28
2022-12-20T07:10:39.594Z,3.25
2022-12-20T07:11:11.918Z,3.85
2022-12-20T07:11:50.753Z,3.17
2022-12-20T07:12:22.639Z,3.72
2022-12-20T07:12:54.548Z,3.67
2022-12-20T07:13:26.244Z,3.22
2022-12-20T07:14:00.238Z,3.55
2022-12-20T07:14:31.833Z,3.17
2022-12-20T07:15:06.304Z,3.38
2022-12-20T07:15:37.823Z,3.40
2022-12-20T07:16:09.519Z,3.15
2022-12-20T07:16:43.692Z,3.60
2022-12-20T07:17:15.474Z,2.72
2022-12-20T07:17:46.989Z,3.35
2022-12-20T07:18:18.538Z,3.35
2022-12-20T07:18:51.175Z,3.67
2022-12-20T07:19:25.583Z,2.78
2022-12-20T07:19:57.496Z,3.15
2022-12-20T07:20:29.799Z,2.55
2022-12-20T07:21:03.182Z,3.38
2022-12-20T07:21:34.822Z,3.03
2022-12-20T07:22:06.685Z,4.28
2022-12-20T07:22:38.292Z,3.25
2022-12-20T07:23:09.891Z,2.83
2022-12-20T07:23:41.398Z,3.33
2022-12-20T07:24:13.069Z,3.28
2022-12-20T07:24:45.703Z,2.58
2022-12-20T07:25:17.346Z,2.65
2022-12-20T07:25:56.858Z,3.35
2022-12-20T07:26:28.873Z,3.17
2022-12-20T07:27:01.368Z,2.83
2022-12-20T07:27:32.859Z,2.97
2022-12-20T07:28:04.517Z,3.40
2022-12-20T07:28:36.309Z,3.03
2022-12-20T07:29:15.036Z,3.10
2022-12-20T07:29:51.058Z,3.28
2022-12-20T07:30:23.261Z,3.60
2022-12-20T07:30:55.094Z,3.97
2022-12-20T07:31:26.695Z,2.90
2022-12-20T07:31:58.517Z,3.30
2022-12-20T07:32:33.641Z,3.03
2022-12-20T07:33:05.177Z,3.40
2022-12-20T07:33:37.405Z,2.95
2022-12-20T07:34:08.985Z,3.10
2022-12-20T07:34:40.586Z,4.30
2022-12-20T07:35:13.015Z,2.90
2022-12-20T07:35:50.977Z,3.08
2022-12-20T07:36:25.917Z,3.03
2022-12-20T07:36:59.563Z,2.85
2022-12-20T07:37:31.381Z,3.70
2022-12-20T07:38:02.916Z,2.92
2022-12-20T07:38:35.772Z,2.40
2022-12-20T07:39:09.172Z,2.92
2022-12-20T07:39:44.580Z,2.45
2022-12-20T07:40:16.508Z,2.88
2022-12-20T07:40:48.648Z,3.10